createdAt,value
2022-10-06T00:00:50.845Z,1.30
2022-10-06T00:03:18.053Z,1.60
2022-10-06T00:05:45.159Z,1.90
2022-10-06T00:08:12.312Z,1.80
2022-10-06T00:10:40.322Z,1.60
2022-10-06T00:13:07.989Z,1.67
2022-10-06T00:15:35.390Z,1.90
2022-10-06T00:18:03.550Z,1.88
2022-10-06T00:20:30.773Z,1.40
2022-10-06T00:22:58.234Z,1.77
2022-10-06T00:25:28.070Z,1.70
2022-10-06T00:27:56.187Z,1.50
2022-10-06T00:30:26.640Z,1.70
2022-10-06T00:32:57.281Z,1.70
2022-10-06T00:35:26.779Z,1.80
2022-10-06T00:37:54.362Z,1.90
2022-10-06T00:40:22.358Z,1.50
2022-10-06T00:43:04.583Z,1.45
2022-10-06T00:45:37.823Z,1.60
2022-10-06T00:48:12.833Z,1.30
2022-10-06T00:50:40.851Z,1.60
2022-10-06T00:53:08.335Z,1.98
2022-10-06T00:55:35.618Z,1.70
2022-10-06T00:58:04.259Z,1.40
2022-10-06T01:00:32.687Z,1.75
2022-10-06T01:03:28.441Z,1.40
2022-10-06T01:05:57.406Z,1.48
2022-10-06T01:08:26.422Z,1.55
2022-10-06T01:10:53.826Z,1.60
2022-10-06T01:13:22.055Z,1.40
2022-10-06T01:16:06.679Z,1.63
2022-10-06T01:18:36.111Z,1.60
2022-10-06T01:21:14.692Z,1.83
2022-10-06T01:23:42.281Z,1.40
2022-10-06T01:26:11.387Z,1.38
2022-10-06T01:28:39.403Z,1.20
2022-10-06T01:31:08.249Z,1.73
2022-10-06T01:33:35.800Z,1.40
2022-10-06T01:36:04.503Z,1.40
2022-10-06T01:38:32.176Z,1.60
2022-10-06T01:41:03.027Z,1.52
2022-10-06T01:43:30.375Z,1.40
2022-10-06T01:45:59.294Z,1.45
2022-10-06T01:48:27.727Z,1.50
2022-10-06T01:50:57.727Z,1.63
2022-10-06T01:53:25.199Z,1.42
2022-10-06T01:55:56.904Z,1.65
2022-10-06T01:58:25.876Z,1.70
2022-10-06T02:00:54.117Z,1.52
2022-10-06T02:03:21.267Z,1.50
2022-10-06T02:05:48.389Z,1.60
2022-10-06T02:08:16.021Z,1.65
2022-10-06T02:10:43.707Z,1.60
2022-10-06T02:13:18.435Z,1.27
2022-10-06T02:15:46.255Z,1.60
2022-10-06T02:18:13.531Z,1.70
2022-10-06T02:20:40.674Z,1.90
2022-10-06T02:23:07.827Z,1.60
2022-10-06T02:25:35.180Z,1.83
2022-10-06T02:28:02.640Z,1.60
2022-10-06T02:30:30.220Z,1.80
2022-10-06T02:32:57.574Z,1.63
2022-10-06T02:35:25.018Z,1.63
2022-10-06T02:37:52.351Z,1.70
2022-10-06T02:40:20.508Z,1.50
2022-10-06T02:42:48.132Z,1.70
2022-10-06T02:45:18.909Z,2.20
2022-10-06T02:47:46.454Z,1.67
2022-10-06T02:50:13.749Z,1.58
2022-10-06T02:52:42.799Z,1.63
2022-10-06T02:55:11.440Z,1.50
2022-10-06T02:57:39.258Z,1.50
2022-10-06T03:00:08.263Z,1.53
2022-10-06T03:02:38.172Z,1.67
2022-10-06T03:05:05.714Z,1.70
2022-10-06T03:07:34.087Z,1.70
2022-10-06T03:10:01.310Z,1.73
2022-10-06T03:12:28.637Z,1.50
2022-10-06T03:14:55.840Z,1.77
2022-10-06T03:17:23.190Z,1.57
2022-10-06T03:19:56.868Z,1.70
2022-10-06T03:22:24.232Z,1.80
2022-10-06T03:24:54.529Z,1.80
2022-10-06T03:27:22.334Z,1.50
2022-10-06T03:29:51.543Z,1.90
2022-10-06T03:32:20.436Z,1.70
2022-10-06T03:34:47.845Z,1.80
2022-10-06T03:37:18.993Z,1.50
2022-10-06T03:39:46.204Z,1.70
2022-10-06T03:42:13.606Z,1.95
2022-10-06T03:44:40.899Z,1.98
2022-10-06T03:47:11.125Z,1.73
2022-10-06T03:49:40.880Z,1.73
2022-10-06T03:52:09.304Z,1.90
2022-10-06T03:54:38.332Z,1.60
2022-10-06T03:57:05.522Z,1.98
2022-10-06T03:59:34.247Z,1.50
2022-10-06T04:02:05.270Z,1.80
2022-10-06T04:04:36.158Z,1.95
2022-10-06T04:07:07.946Z,1.60
2022-10-06T04:09:36.553Z,2.00
2022-10-06T04:12:03.762Z,1.60
2022-10-06T04:14:33.326Z,1.88
2022-10-06T04:17:01.495Z,1.77
2022-10-06T04:19:32.195Z,1.83
2022-10-06T04:21:59.815Z,1.60
2022-10-06T04:24:27.113Z,1.67
2022-10-06T04:27:14.486Z,1.58
2022-10-06T04:29:42.652Z,1.80
2022-10-06T04:32:09.864Z,1.45
2022-10-06T04:34:37.795Z,1.70
2022-10-06T04:37:04.993Z,1.43
2022-10-06T04:39:32.818Z,1.60
2022-10-06T04:42:03.238Z,1.95
2022-10-06T04:44:33.578Z,2.03
2022-10-06T04:47:04.119Z,1.75
2022-10-06T04:49:31.730Z,1.70
2022-10-06T04:51:59.068Z,1.48
2022-10-06T04:54:31.372Z,1.90
2022-10-06T04:57:01.020Z,1.80
2022-10-06T04:59:48.723Z,1.75
2022-10-06T05:02:17.479Z,1.87
2022-10-06T05:04:45.724Z,1.70
2022-10-06T05:07:14.749Z,1.73
2022-10-06T05:09:42.528Z,1.73
2022-10-06T05:12:12.534Z,1.73
2022-10-06T05:14:40.509Z,1.50
2022-10-06T05:17:07.694Z,1.55
2022-10-06T05:19:36.332Z,1.55
2022-10-06T05:22:03.675Z,2.00
2022-10-06T05:24:32.413Z,1.67
2022-10-06T05:27:02.115Z,1.90
2022-10-06T05:29:29.797Z,1.90
2022-10-06T05:31:57.623Z,1.70
2022-10-06T05:34:25.686Z,1.90
2022-10-06T05:36:52.888Z,1.40
2022-10-06T05:39:20.074Z,1.70
2022-10-06T05:41:51.549Z,1.70
2022-10-06T05:44:18.903Z,1.60
2022-10-06T05:46:47.404Z,1.73
2022-10-06T05:49:14.707Z,1.90
2022-10-06T05:51:46.972Z,2.30
2022-10-06T05:54:22.249Z,1.85
2022-10-06T05:56:50.410Z,1.88
2022-10-06T05:59:17.596Z,1.70
2022-10-06T06:01:45.072Z,2.07
2022-10-06T06:04:22.916Z,1.90
2022-10-06T06:06:53.055Z,1.90
2022-10-06T06:09:23.406Z,1.77
2022-10-06T06:11:53.630Z,2.20
2022-10-06T06:14:44.154Z,1.77
2022-10-06T06:17:15.813Z,1.90
2022-10-06T06:19:43.006Z,2.00
2022-10-06T06:22:10.338Z,1.92
2022-10-06T06:24:40.675Z,1.88
2022-10-06T06:27:09.124Z,2.05
2022-10-06T06:29:36.448Z,1.90
2022-10-06T06:32:03.827Z,1.70
2022-10-06T06:34:31.346Z,1.60
2022-10-06T06:37:03.587Z,2.10
2022-10-06T06:39:34.484Z,1.80
2022-10-06T06:42:02.083Z,2.03
2022-10-06T06:44:49.057Z,1.60
2022-10-06T06:47:48.111Z,2.03
2022-10-06T06:50:17.926Z,2.15
2022-10-06T06:52:45.375Z,1.90
2022-10-06T06:55:15.284Z,1.90
2022-10-06T06:57:42.402Z,1.63
2022-10-06T07:00:10.174Z,1.88
2022-10-06T07:02:39.251Z,1.80
2022-10-06T07:05:06.923Z,1.57
2022-10-06T07:07:35.950Z,1.80
2022-10-06T07:10:04.006Z,1.85
2022-10-06T07:12:34.009Z,1.95
2022-10-06T07:15:19.978Z,1.83
2022-10-06T07:18:10.165Z,1.70
2022-10-06T07:21:10.082Z,2.03
2022-10-06T07:24:04.050Z,1.77
2022-10-06T07:26:31.426Z,1.90
2022-10-06T07:29:00.076Z,1.80
2022-10-06T07:31:33.741Z,2.10
2022-10-06T07:34:04.783Z,1.80
2022-10-06T07:36:32.416Z,2.23
2022-10-06T07:38:59.699Z,1.95
2022-10-06T07:41:29.364Z,1.90
2022-10-06T07:44:01.642Z,1.90
2022-10-06T07:46:33.272Z,1.92
2022-10-06T07:49:05.660Z,1.80
2022-10-06T07:51:33.045Z,2.20
2022-10-06T07:54:02.350Z,2.17
2022-10-06T07:56:34.240Z,1.90
2022-10-06T07:59:01.485Z,1.75
2022-10-06T08:01:30.166Z,2.00
2022-10-06T08:03:57.526Z,1.90
2022-10-06T08:06:24.815Z,2.10
2022-10-06T08:08:56.413Z,2.05
2022-10-06T08:11:23.637Z,2.30
2022-10-06T08:13:52.659Z,1.80
2022-10-06T08:16:22.440Z,2.10
2022-10-06T08:18:53.095Z,2.20
2022-10-06T08:21:26.440Z,1.70
2022-10-06T08:23:54.770Z,1.60
2022-10-06T08:26:23.426Z,1.80
2022-10-06T08:28:57.520Z,1.85
2022-10-06T08:31:25.008Z,1.58
2022-10-06T08:33:56.754Z,1.58
2022-10-06T08:36:30.906Z,1.85
2022-10-06T08:38:59.043Z,1.60
2022-10-06T08:41:32.180Z,1.88
2022-10-06T08:44:05.081Z,1.40
2022-10-06T08:46:39.710Z,1.63
2022-10-06T08:49:15.513Z,1.30
2022-10-06T08:52:07.937Z,1.50
2022-10-06T08:54:58.288Z,1.52
2022-10-06T08:57:35.818Z,1.48
2022-10-06T09:00:09.490Z,1.52
2022-10-06T09:02:41.537Z,1.50
2022-10-06T09:05:14.074Z,1.70
2022-10-06T09:08:23.276Z,1.55
2022-10-06T09:11:29.302Z,1.50
2022-10-06T09:14:09.882Z,1.50
2022-10-06T09:16:43.883Z,1.73
2022-10-06T09:19:33.931Z,1.60
2022-10-06T09:22:04.583Z,1.88
2022-10-06T09:24:39.789Z,1.80
2022-10-06T09:27:18.761Z,1.60
2022-10-06T09:29:48.626Z,1.50
2022-10-06T09:32:18.205Z,1.60
2022-10-06T09:34:56.403Z,1.40
2022-10-06T09:37:24.047Z,1.40
2022-10-06T09:39:53.103Z,1.75
2022-10-06T09:42:29.550Z,1.35
2022-10-06T09:44:56.662Z,1.42
2022-10-06T09:47:35.911Z,1.63
2022-10-06T09:50:11.875Z,1.45
2022-10-06T09:52:40.959Z,1.35
2022-10-06T09:55:14.391Z,1.43
2022-10-06T09:58:22.920Z,1.60
2022-10-06T10:00:56.478Z,1.80
2022-10-06T10:03:31.179Z,1.55
2022-10-06T10:06:02.202Z,1.52
2022-10-06T10:08:32.574Z,1.50
2022-10-06T10:11:27.418Z,1.90
2022-10-06T10:13:57.720Z,1.73
2022-10-06T10:16:34.641Z,1.60
2022-10-06T10:19:05.597Z,1.95
2022-10-06T10:21:34.793Z,1.80
2022-10-06T10:24:06.124Z,1.70
2022-10-06T10:26:57.019Z,1.80
2022-10-06T10:29:35.782Z,2.05
2022-10-06T10:32:34.981Z,1.92
2022-10-06T10:35:05.295Z,2.08
2022-10-06T10:37:53.370Z,1.70
2022-10-06T10:40:27.635Z,1.80
2022-10-06T10:43:22.197Z,1.50
2022-10-06T10:46:23.711Z,1.98
2022-10-06T10:49:13.235Z,1.92
2022-10-06T10:51:53.071Z,1.60
2022-10-06T10:54:27.442Z,1.70
2022-10-06T10:56:54.599Z,1.40
2022-10-06T10:59:37.566Z,1.80
2022-10-06T11:02:09.556Z,1.80
2022-10-06T11:04:41.564Z,1.75
2022-10-06T11:07:31.132Z,1.85
2022-10-06T11:10:10.305Z,1.40
2022-10-06T11:13:10.189Z,1.80
2022-10-06T11:15:57.693Z,1.80
2022-10-06T11:18:54.057Z,2.05
2022-10-06T11:21:27.182Z,1.70
2022-10-06T11:24:13.087Z,1.63
2022-10-06T11:26:59.404Z,1.73
2022-10-06T11:29:41.294Z,1.50
2022-10-06T11:32:44.286Z,1.70
2022-10-06T11:35:23.746Z,1.70
2022-10-06T11:38:04.874Z,1.77
2022-10-06T11:40:51.645Z,1.85
2022-10-06T11:43:49.006Z,1.60
2022-10-06T11:46:35.808Z,1.65
2022-10-06T11:49:36.861Z,1.60
2022-10-06T11:52:08.227Z,1.50
2022-10-06T11:54:45.273Z,1.80
2022-10-06T11:57:30.575Z,2.10
2022-10-06T12:00:16.246Z,1.70
2022-10-06T12:02:45.946Z,1.80
2022-10-06T12:05:48.282Z,1.67
2022-10-06T12:08:01.128Z,1.60
2022-10-06T12:10:28.253Z,1.70
2022-10-06T12:19:37.118Z,1.80
2022-10-06T12:22:20.446Z,1.90
2022-10-06T12:25:22.216Z,1.73
2022-10-06T12:27:55.528Z,1.50
2022-10-06T12:30:30.350Z,1.50
2022-10-06T12:32:59.138Z,1.93
2022-10-06T12:35:32.723Z,1.70
2022-10-06T12:38:05.324Z,1.90
2022-10-06T12:40:39.832Z,1.93
2022-10-06T12:43:18.920Z,1.60
2022-10-06T12:46:12.624Z,1.80
2022-10-06T12:49:04.640Z,1.80
2022-10-06T12:51:40.763Z,1.60
2022-10-06T12:54:19.341Z,1.50
2022-10-06T12:56:58.925Z,1.97
2022-10-06T12:59:33.738Z,2.13
2022-10-06T13:02:02.787Z,1.80
2022-10-06T13:04:34.515Z,1.88
2022-10-06T13:07:14.398Z,1.50
2022-10-06T13:09:42.001Z,1.35
2022-10-06T13:12:26.138Z,1.70
2022-10-06T13:15:19.956Z,1.70
2022-10-06T13:17:56.204Z,1.85
2022-10-06T13:20:41.171Z,1.60
2022-10-06T13:23:31.033Z,1.50
2022-10-06T13:25:59.416Z,2.10
2022-10-06T13:28:44.990Z,1.67
2022-10-06T13:31:22.548Z,1.70
2022-10-06T13:34:02.398Z,1.40
2022-10-06T13:36:37.068Z,1.52
2022-10-06T13:39:25.640Z,1.67
2022-10-06T13:42:03.566Z,1.50
2022-10-06T13:44:56.213Z,1.48
2022-10-06T13:47:25.502Z,1.58
2022-10-06T13:50:01.989Z,1.58
2022-10-06T13:52:35.784Z,1.60
2022-10-06T13:55:05.184Z,1.67
2022-10-06T13:57:40.036Z,1.60
2022-10-06T14:00:23.867Z,1.40
2022-10-06T14:03:11.409Z,1.42
2022-10-06T14:05:42.111Z,2.00
2022-10-06T14:08:12.227Z,1.67
2022-10-06T14:10:55.250Z,2.20
2022-10-06T14:13:27.815Z,1.35
2022-10-06T14:16:03.455Z,1.60
2022-10-06T14:18:33.421Z,1.57
2022-10-06T14:21:20.024Z,1.52
2022-10-06T14:23:49.195Z,1.63
2022-10-06T14:26:18.748Z,1.73
2022-10-06T14:28:52.685Z,1.67
2022-10-06T14:31:21.456Z,1.60
2022-10-06T14:33:52.160Z,1.55
2022-10-06T14:36:27.274Z,1.70
2022-10-06T14:38:56.365Z,1.60
2022-10-06T14:41:27.336Z,1.40
2022-10-06T14:43:56.290Z,1.40
2022-10-06T14:46:25.297Z,1.50
2022-10-06T14:48:52.764Z,1.77
2022-10-06T14:51:20.692Z,1.40
2022-10-06T14:53:56.413Z,1.40
2022-10-06T14:56:31.562Z,1.70
2022-10-06T14:59:03.896Z,1.50
2022-10-06T15:01:33.186Z,1.88
2022-10-06T15:04:03.409Z,1.45
2022-10-06T15:06:49.419Z,1.52
2022-10-06T15:09:16.658Z,1.45
2022-10-06T15:11:43.895Z,1.63
2022-10-06T15:14:11.552Z,1.42
2022-10-06T15:16:42.011Z,1.38
2022-10-06T15:19:10.905Z,1.47
2022-10-06T15:21:39.730Z,1.60
2022-10-06T15:24:10.408Z,1.40
2022-10-06T15:26:56.452Z,1.70
2022-10-06T15:29:23.570Z,1.60
2022-10-06T15:31:55.021Z,1.60
2022-10-06T15:34:25.163Z,1.70
2022-10-06T15:36:53.817Z,1.40
2022-10-06T15:39:23.729Z,1.50
2022-10-06T15:41:51.509Z,1.75
2022-10-06T15:44:22.045Z,1.90
2022-10-06T15:46:54.043Z,1.70
2022-10-06T15:49:23.710Z,1.98
2022-10-06T15:51:59.647Z,1.70
2022-10-06T15:54:29.348Z,1.60
2022-10-06T15:57:01.605Z,1.65
2022-10-06T15:59:31.543Z,1.80
2022-10-06T16:02:02.474Z,1.77
2022-10-06T16:04:38.060Z,1.75
2022-10-06T16:07:16.786Z,2.28
2022-10-06T16:09:46.554Z,2.13
2022-10-06T16:12:16.548Z,2.05
2022-10-06T16:14:44.535Z,1.80
2022-10-06T16:17:12.783Z,2.20
2022-10-06T16:19:40.250Z,2.00
2022-10-06T16:22:09.412Z,1.80
2022-10-06T16:24:36.614Z,1.90
2022-10-06T16:27:03.966Z,1.80
2022-10-06T16:29:31.088Z,1.93
2022-10-06T16:31:59.156Z,1.90
2022-10-06T16:34:26.361Z,1.98
2022-10-06T16:36:53.541Z,1.75
2022-10-06T16:39:22.439Z,1.85
2022-10-06T16:41:50.425Z,1.57
2022-10-06T16:44:18.620Z,1.65
2022-10-06T16:46:46.061Z,1.40
2022-10-06T16:49:13.345Z,1.90
2022-10-06T16:51:43.070Z,1.85
2022-10-06T16:54:12.234Z,2.10
2022-10-06T16:56:47.878Z,1.75
2022-10-06T16:59:20.054Z,1.70
2022-10-06T17:01:48.732Z,1.40
2022-10-06T17:04:18.614Z,1.73
2022-10-06T17:06:54.256Z,1.48
2022-10-06T17:09:24.048Z,1.40
2022-10-06T17:11:57.183Z,1.57
2022-10-06T17:14:24.865Z,1.60
2022-10-06T17:16:54.015Z,1.77
2022-10-06T17:19:24.058Z,1.70
2022-10-06T17:21:58.238Z,1.80
2022-10-06T17:24:27.943Z,1.60
2022-10-06T17:26:57.070Z,1.70
2022-10-06T17:29:24.982Z,1.70
2022-10-06T17:31:56.038Z,1.83
2022-10-06T17:34:26.425Z,1.80
2022-10-06T17:36:57.755Z,1.42
2022-10-06T17:39:24.936Z,1.60
2022-10-06T17:41:53.580Z,1.50
2022-10-06T17:44:24.041Z,1.60
2022-10-06T17:47:01.886Z,1.60
2022-10-06T17:49:32.602Z,1.60
2022-10-06T17:52:00.091Z,1.73
2022-10-06T17:54:28.398Z,1.75
2022-10-06T17:56:57.589Z,1.83
2022-10-06T17:59:30.532Z,1.67
2022-10-06T18:02:00.780Z,1.50
2022-10-06T18:04:28.739Z,1.65
2022-10-06T18:06:56.851Z,1.50
2022-10-06T18:09:24.323Z,2.05
2022-10-06T18:11:56.211Z,1.70
2022-10-06T18:14:26.427Z,1.80
2022-10-06T18:16:57.327Z,2.00
2022-10-06T18:19:29.578Z,1.75
2022-10-06T18:22:00.325Z,1.97
2022-10-06T18:24:30.013Z,1.90
2022-10-06T18:26:59.912Z,1.80
2022-10-06T18:29:36.401Z,2.00
2022-10-06T18:32:51.063Z,2.05
2022-10-06T18:37:40.029Z,1.90
2022-10-06T18:40:09.960Z,1.70
2022-10-06T18:42:38.855Z,2.40
2022-10-06T18:45:25.640Z,2.00
2022-10-06T18:48:11.386Z,2.00
2022-10-06T18:50:39.412Z,1.95
2022-10-06T18:53:07.078Z,2.00
2022-10-06T18:55:34.817Z,1.90
2022-10-06T18:58:02.381Z,1.90
2022-10-06T19:00:29.504Z,1.70
2022-10-06T19:02:56.783Z,2.00
2022-10-06T19:05:24.362Z,1.90
2022-10-06T19:07:54.640Z,2.10
2022-10-06T19:10:22.017Z,2.20
2022-10-06T19:12:49.648Z,1.88
2022-10-06T19:15:20.654Z,1.97
2022-10-06T19:17:49.362Z,2.38
2022-10-06T19:20:18.224Z,2.37
2022-10-06T19:22:47.191Z,2.30
2022-10-06T19:25:14.596Z,2.65
2022-10-06T19:27:42.039Z,2.25
2022-10-06T19:30:09.576Z,2.30
2022-10-06T19:32:36.736Z,2.17
2022-10-06T19:35:09.269Z,2.20
2022-10-06T19:37:37.687Z,2.00
2022-10-06T19:40:08.459Z,2.22
2022-10-06T19:42:47.619Z,1.90
2022-10-06T19:45:15.971Z,2.10
2022-10-06T19:47:44.854Z,2.30
2022-10-06T19:50:13.047Z,2.13
2022-10-06T19:52:41.591Z,2.25
2022-10-06T19:55:08.783Z,2.20
2022-10-06T19:57:35.969Z,2.17
2022-10-06T20:00:06.801Z,2.30
2022-10-06T20:02:43.548Z,2.10
2022-10-06T20:05:13.249Z,2.13
2022-10-06T20:07:43.685Z,2.40
2022-10-06T20:10:12.552Z,2.28
2022-10-06T20:12:41.306Z,1.80
2022-10-06T20:15:09.810Z,2.17
2022-10-06T20:17:37.353Z,2.53
2022-10-06T20:20:04.788Z,2.13
2022-10-06T20:22:31.916Z,1.90
2022-10-06T20:24:59.198Z,2.28
2022-10-06T20:27:26.335Z,1.90
2022-10-06T20:29:53.721Z,2.30
2022-10-06T20:32:21.814Z,2.00
2022-10-06T20:34:48.935Z,2.07
2022-10-06T20:37:16.060Z,2.10
2022-10-06T20:40:01.687Z,2.08
2022-10-06T20:42:28.877Z,2.15
2022-10-06T20:44:56.001Z,2.03
2022-10-06T20:47:23.241Z,2.10
2022-10-06T20:49:54.928Z,2.05
2022-10-06T20:52:23.842Z,1.80
2022-10-06T20:54:51.143Z,2.03
2022-10-06T20:57:18.416Z,2.00
2022-10-06T20:59:45.998Z,2.10
2022-10-06T21:02:13.395Z,2.00
2022-10-06T21:04:43.398Z,1.95
2022-10-06T21:07:11.095Z,2.03
2022-10-06T21:09:38.205Z,2.28
2022-10-06T21:12:05.396Z,2.10
2022-10-06T21:14:34.037Z,2.20
2022-10-06T21:17:01.777Z,2.17
2022-10-06T21:19:29.834Z,2.30
2022-10-06T21:21:56.976Z,2.15
2022-10-06T21:24:24.186Z,2.20
2022-10-06T21:26:52.536Z,2.22
2022-10-06T21:29:20.452Z,2.33
2022-10-06T21:31:47.866Z,2.10
2022-10-06T21:34:15.029Z,2.40
2022-10-06T21:36:43.725Z,2.60
2022-10-06T21:39:11.949Z,2.13
2022-10-06T21:41:39.920Z,2.20
2022-10-06T21:44:10.749Z,2.23
2022-10-06T21:46:46.616Z,2.33
2022-10-06T21:49:16.264Z,2.22
2022-10-06T21:51:45.681Z,2.47
2022-10-06T21:54:13.060Z,2.08
2022-10-06T21:56:40.592Z,2.20
2022-10-06T21:59:08.743Z,2.20
2022-10-06T22:01:45.075Z,2.30
2022-10-06T22:04:14.161Z,2.20
2022-10-06T22:06:43.122Z,2.20
2022-10-06T22:09:13.976Z,2.30
2022-10-06T22:11:41.839Z,2.00
2022-10-06T22:14:12.052Z,2.20
2022-10-06T22:16:39.791Z,2.30
2022-10-06T22:19:09.563Z,2.47
2022-10-06T22:21:39.309Z,2.50
2022-10-06T22:24:09.188Z,1.90
2022-10-06T22:26:37.989Z,2.03
2022-10-06T22:29:07.700Z,2.30
2022-10-06T22:31:36.981Z,2.00
2022-10-06T22:34:07.657Z,2.72
2022-10-06T22:36:34.909Z,2.10
2022-10-06T22:39:02.381Z,1.90
2022-10-06T22:41:29.696Z,2.40
2022-10-06T22:43:58.233Z,2.20
2022-10-06T22:46:31.288Z,1.90
2022-10-06T22:48:58.923Z,2.20
2022-10-06T22:51:26.175Z,2.30
2022-10-06T22:53:57.889Z,2.28
2022-10-06T22:56:27.624Z,2.28
2022-10-06T22:58:55.335Z,2.25
2022-10-06T23:01:22.619Z,2.50
2022-10-06T23:03:49.758Z,2.85
2022-10-06T23:06:18.096Z,2.63
2022-10-06T23:08:45.532Z,2.50
2022-10-06T23:11:15.818Z,2.55
2022-10-06T23:13:44.343Z,2.42
2022-10-06T23:16:14.231Z,2.30
2022-10-06T23:18:42.869Z,2.45
2022-10-06T23:21:17.376Z,2.78
2022-10-06T23:23:45.731Z,2.40
2022-10-06T23:26:15.147Z,2.47
2022-10-06T23:28:42.666Z,2.40
2022-10-06T23:31:12.360Z,2.55
2022-10-06T23:33:39.677Z,2.78
2022-10-06T23:36:11.959Z,2.67
2022-10-06T23:38:39.497Z,3.10
2022-10-06T23:41:07.301Z,2.95
2022-10-06T23:43:34.901Z,2.70
2022-10-06T23:46:03.122Z,2.75
2022-10-06T23:48:30.433Z,2.60
2022-10-06T23:51:12.301Z,2.50
2022-10-06T23:53:39.625Z,2.70
2022-10-06T23:56:07.871Z,2.60
2022-10-06T23:58:36.162Z,2.90
